Lafayette, TN

8:09 PM CDT on April 19, 2015 (GMT -0500)
Bowling Green-Warren County Regional | | Change Station
CLOSE
Current Station
Airport
Location: Bowling Green,
Elevation: 548 ft
Nearby Weather Stations

Elev 548 ft 36.96 °N, 86.42 °W | Updated 16 minutes ago

Rain
Rain
65 °F
Feels Like 65 °F
N
13
Wind Variable Wind from WSW

Today
High -- | Low -- °F
--% Chance of Precip.
Yesterday
High -- | Low -- °F
Precip. -- in
6:05 AM 7:21 PM
New Moon, 2% visible
Pressure 29.56 in
Visibility 5.0 miles
Clouds Few 2100 ft
Overcast 8000 ft
Dew Point 60 °F
Humidity 84%
Rainfall 1.17 in
Snow Depth Not available.
UV 0 out of 12
Pollen .60 out of 12
Air Quality Not available.
Flu Activity Sporadic
METAR KBWG 200053Z AUTO 24011KT 5SM -RA FEW021 OVC080 18/16 A2957 RMK AO2 RAE09B30 SLP010 P0005 T01830156

More Conditions Fewer Conditions

Pressure 29.56 in
Visibility 5.0 miles
Clouds Few 2100 ft
Overcast 8000 ft
Dew Point 60 °F
Humidity 84%
Rainfall 1.17 in
Snow Depth Not available.
UV 0 out of 12
Pollen .60 out of 12
Air Quality Not available.
Flu Activity Sporadic
METAR KBWG 200053Z AUTO 24011KT 5SM -RA FEW021 OVC080 18/16 A2957 RMK AO2 RAE09B30 SLP010 P0005 T01830156

More Conditions Fewer Conditions

10-Day Weather Forecast

Almanac

Astronomy

Apr. 19, 2015 Rise Set
Actual Time
Civil Twilight
Nautical Twilight
Astronomical Twilight
Moon
Length of Visible Light
Length of Day
Tomorrow will be .
, % of the Moon is Illuminated

Today's Extremes

State Highs State Lows

Community

WunderPhotos

Upload Photos

1,815,080 photos uploaded!

WunderBlogs® & News

Nearby

Air Quality

  Air Quality AQ Index Pollutant
Not available.

Snow Depth

Station Depth Elevation

Earthquake Activity

City Distance Mag. Time & Date
Minimum magnitude displayed is 2.5.

Coastal Water Temperatures

Place Temperature

Stations

Nearby Weather Stations

Station Location Temp. Windchill Dew Point Humidity Wind Precip. Elev Updated Type